Time;durP1;ratioP1;P1;durP2;ratioP2;P2;SDS_P1;SDS_P2;PMS_P1;PMS_P2;Temp;Humidity;BMP_temperature;BMP_pressure;BME280_temperature;BME280_humidity;BME280_pressure;Samples;Min_cycle;Max_cycle;Signal;HPM_P1;HPM_P2
2023/09/21 00:19:22;;;;;;;22.60;18.37;;;12.10;99.90;;;;;;4775402;29;20245;-84
2023/09/21 00:39:34;;;;;;;24.23;16.83;;;11.90;99.90;;;;;;4690177;29;20652;-86
2023/09/21 01:15:09;;;;;;;23.63;18.53;;;11.80;99.90;;;;;;4809093;29;20261;-82
2023/09/21 01:40:19;;;;;;;27.67;21.67;;;12.30;99.90;;;;;;4841276;28;20808;-82
2023/09/21 02:15:57;;;;;;;26.07;20.10;;;11.90;99.90;;;;;;4799087;29;20261;-84
2023/09/21 02:41:17;;;;;;;23.57;19.70;;;11.40;99.90;;;;;;4769680;29;20209;-85
2023/09/21 03:11:48;;;;;;;28.43;22.10;;;11.20;99.90;;;;;;4752259;29;20327;-83
2023/09/21 03:36:50;;;;;;;29.60;21.90;;;11.20;99.90;;;;;;4813128;29;20660;-83
2023/09/21 04:32:20;;;;;;;41.47;31.60;;;11.60;99.90;;;;;;4648262;29;20668;-84
2023/09/21 04:53:03;;;;;;;44.53;35.30;;;12.10;99.90;;;;;;4753470;29;20277;-84
2023/09/21 05:33:47;;;;;;;37.10;29.67;;;13.50;99.90;;;;;;4905520;28;20365;-82
2023/09/21 05:58:38;;;;;;;20.73;18.37;;;14.40;99.90;;;;;;4695948;29;21082;-82
2023/09/21 06:24:35;;;;;;;19.27;15.30;;;15.20;99.90;;;;;;4664823;29;20267;-82
2023/09/21 07:30:38;;;;;;;11.10;9.47;;;18.30;99.90;;;;;;4519138;30;20224;-83
2023/09/21 08:36:25;;;;;;;7.40;6.65;;;20.30;99.90;;;;;;4549135;30;20391;-82
2023/09/21 09:01:34;;;;;;;7.43;5.93;;;21.20;99.90;;;;;;4634546;29;20251;-84
2023/09/21 09:22:03;;;;;;;6.30;5.50;;;21.80;98.50;;;;;;4693186;29;21711;-82
2023/09/21 09:47:38;;;;;;;5.68;5.07;;;22.20;94.60;;;;;;4726246;29;20334;-81
2023/09/21 10:17:57;;;;;;;7.07;5.05;;;22.80;90.80;;;;;;4534710;30;20770;-84
2023/09/21 10:38:21;;;;;;;6.82;4.50;;;23.20;90.50;;;;;;4557363;30;20610;-86
2023/09/21 11:43:42;;;;;;;7.90;3.83;;;24.40;81.70;;;;;;4676810;29;20294;-85
2023/09/21 12:09:06;;;;;;;4.80;2.58;;;24.50;75.90;;;;;;4695159;29;20635;-88
2023/09/21 12:30:03;;;;;;;3.75;2.35;;;24.80;71.80;;;;;;4772133;29;20329;-88
2023/09/21 12:59:54;;;;;;;2.70;2.50;;;25.10;71.10;;;;;;4730458;29;20529;-86
2023/09/21 13:25:47;;;;;;;2.60;2.00;;;25.60;64.60;;;;;;4724158;29;21022;-86
2023/09/21 13:46:05;;;;;;;3.70;1.88;;;25.80;62.40;;;;;;4743319;29;20760;-87
2023/09/21 14:16:31;;;;;;;3.65;2.35;;;25.80;62.70;;;;;;4789804;29;20591;-83
2023/09/21 14:41:47;;;;;;;2.90;1.88;;;25.10;62.50;;;;;;4696332;29;20761;-85
2023/09/21 15:06:58;;;;;;;3.72;2.13;;;24.70;63.10;;;;;;4708868;29;21179;-85
2023/09/21 15:27:36;;;;;;;2.47;2.30;;;24.20;65.80;;;;;;4669446;30;20388;-86
2023/09/21 16:02:58;;;;;;;3.22;2.10;;;23.60;69.50;;;;;;4732977;29;20296;-85
2023/09/21 16:38:35;;;;;;;2.60;2.40;;;22.70;81.60;;;;;;4774057;29;21225;-86
2023/09/21 17:19:11;;;;;;;5.38;2.90;;;21.40;91.20;;;;;;4903726;28;20298;-85
2023/09/21 17:44:23;;;;;;;4.43;3.25;;;21.00;94.00;;;;;;4840974;29;20205;-84
2023/09/21 18:04:43;;;;;;;3.28;2.95;;;20.60;95.00;;;;;;4700660;29;20685;-85
2023/09/21 18:30:01;;;;;;;3.72;3.15;;;20.40;96.30;;;;;;4767572;29;20219;-86
2023/09/21 19:00:25;;;;;;;8.53;3.87;;;19.80;99.90;;;;;;4741962;29;20258;-84
2023/09/21 19:25:38;;;;;;;6.83;4.23;;;19.50;99.90;;;;;;4771881;29;20206;-84
2023/09/21 20:16:47;;;;;;;5.87;5.03;;;19.10;99.90;;;;;;4797266;29;20871;-85
2023/09/21 20:37:06;;;;;;;6.90;4.53;;;19.10;99.90;;;;;;4771391;29;20245;-84
2023/09/21 21:07:25;;;;;;;5.07;4.57;;;19.10;99.90;;;;;;4814925;29;20348;-84
2023/09/21 21:27:20;;;;;;;6.57;4.73;;;19.00;99.90;;;;;;4866454;28;20216;-82
2023/09/21 21:52:56;;;;;;;6.87;5.50;;;18.70;99.90;;;;;;4879390;28;20205;-85
2023/09/21 22:13:05;;;;;;;7.27;5.90;;;18.40;99.90;;;;;;4828147;28;20465;-84
2023/09/21 22:38:23;;;;;;;5.87;4.97;;;18.10;99.90;;;;;;4742108;29;20212;-85
2023/09/21 22:59:08;;;;;;;6.43;5.23;;;18.00;99.90;;;;;;4646953;30;20248;-85
2023/09/21 23:29:25;;;;;;;6.20;4.97;;;17.80;99.90;;;;;;4692588;29;20585;-79
2023/09/21 23:54:44;;;;;;;6.97;5.27;;;17.70;99.90;;;;;;4821193;28;20197;-84
